createdAt,value
2017-09-07T00:00:38.422Z,99.99
2017-09-07T00:01:38.428Z,99.99
2017-09-07T00:02:38.485Z,99.99
2017-09-07T00:03:38.456Z,99.99
2017-09-07T00:04:38.482Z,99.99
2017-09-07T00:05:38.490Z,99.99
2017-09-07T00:07:38.460Z,99.99
2017-09-07T00:08:38.494Z,99.99
2017-09-07T00:09:38.455Z,99.99
2017-09-07T00:10:38.432Z,99.99
2017-09-07T00:11:38.435Z,99.99
2017-09-07T00:12:38.460Z,99.99
2017-09-07T00:13:38.435Z,99.99
2017-09-07T00:14:38.458Z,99.99
2017-09-07T00:15:38.493Z,99.99
2017-09-07T00:16:38.498Z,99.99
2017-09-07T00:17:38.435Z,99.99
2017-09-07T00:18:38.446Z,99.99
2017-09-07T00:19:38.470Z,99.99
2017-09-07T00:20:38.463Z,99.99
2017-09-07T00:21:38.466Z,99.99
2017-09-07T00:22:38.438Z,99.99
2017-09-07T00:23:38.471Z,99.99
2017-09-07T00:24:38.462Z,99.99
2017-09-07T00:25:38.529Z,99.99
2017-09-07T00:26:38.448Z,99.99
2017-09-07T00:27:38.484Z,99.99
2017-09-07T00:28:38.476Z,99.99
2017-09-07T00:29:38.470Z,99.99
2017-09-07T00:30:38.514Z,99.99
2017-09-07T00:31:38.541Z,99.99
2017-09-07T00:32:38.491Z,99.99
2017-09-07T00:33:38.503Z,99.99
2017-09-07T00:34:38.515Z,99.99
2017-09-07T00:35:38.539Z,99.99
2017-09-07T00:36:38.479Z,99.99
2017-09-07T00:37:38.474Z,99.99
2017-09-07T00:38:38.508Z,99.99
2017-09-07T00:39:38.451Z,99.99
2017-09-07T00:40:38.506Z,99.99
2017-09-07T00:41:38.452Z,99.99
2017-09-07T00:42:38.505Z,99.99
2017-09-07T00:43:38.510Z,99.99
2017-09-07T00:44:38.451Z,99.99
2017-09-07T00:45:38.451Z,99.99
2017-09-07T00:46:38.518Z,99.99
2017-09-07T00:47:38.458Z,99.99
2017-09-07T00:48:38.525Z,99.99
2017-09-07T00:49:38.555Z,99.99
2017-09-07T00:50:38.490Z,99.99
2017-09-07T00:51:38.462Z,99.99
2017-09-07T00:52:38.467Z,99.99
2017-09-07T00:53:38.562Z,99.99
2017-09-07T00:54:38.500Z,99.99
2017-09-07T00:55:38.565Z,99.99
2017-09-07T00:56:38.534Z,99.99
2017-09-07T00:57:38.539Z,99.99
2017-09-07T00:58:38.537Z,99.99
2017-09-07T00:59:38.529Z,99.99
2017-09-07T01:00:38.551Z,99.99
2017-09-07T01:01:38.558Z,99.99
2017-09-07T01:02:38.539Z,99.99
2017-09-07T01:03:38.569Z,99.99
2017-09-07T01:04:38.557Z,99.99
2017-09-07T01:05:38.472Z,99.99
2017-09-07T01:06:38.475Z,99.99
2017-09-07T01:07:38.503Z,99.99
2017-09-07T01:08:38.603Z,99.99
2017-09-07T01:09:38.470Z,99.99
2017-09-07T01:10:38.482Z,99.99
2017-09-07T01:11:38.469Z,99.99
2017-09-07T01:12:38.409Z,99.99
2017-09-07T01:13:38.486Z,99.99
2017-09-07T01:14:38.541Z,99.99
2017-09-07T01:15:38.421Z,99.99
2017-09-07T01:16:38.469Z,99.99
2017-09-07T01:17:38.493Z,99.99
2017-09-07T01:18:38.533Z,99.99
2017-09-07T01:19:38.473Z,99.99
2017-09-07T01:20:38.477Z,99.99
2017-09-07T01:21:38.513Z,99.99
2017-09-07T01:22:38.501Z,99.99
2017-09-07T01:23:38.476Z,99.99
2017-09-07T01:24:38.539Z,99.99
2017-09-07T01:25:38.504Z,99.99
2017-09-07T01:26:38.499Z,99.99
2017-09-07T01:27:38.538Z,99.99
2017-09-07T01:28:38.502Z,99.99
2017-09-07T01:29:38.479Z,99.99
2017-09-07T01:30:38.503Z,99.99
2017-09-07T01:31:38.434Z,99.96
2017-09-07T01:32:38.491Z,99.75
2017-09-07T01:33:38.465Z,99.53
2017-09-07T01:34:38.632Z,99.40
2017-09-07T01:35:38.469Z,99.40
2017-09-07T01:36:38.455Z,99.45
2017-09-07T01:37:38.514Z,99.21
2017-09-07T01:38:38.485Z,99.59
2017-09-07T01:39:38.509Z,99.26
2017-09-07T01:40:38.547Z,99.10
2017-09-07T01:41:38.545Z,99.10
2017-09-07T01:42:38.512Z,99.15
2017-09-07T01:43:38.514Z,99.48
2017-09-07T01:44:38.547Z,99.99
2017-09-07T01:45:38.546Z,99.34
2017-09-07T01:46:38.551Z,99.34
2017-09-07T01:47:38.549Z,98.94
2017-09-07T01:48:38.565Z,99.02
2017-09-07T01:49:38.493Z,98.88
2017-09-07T01:50:38.528Z,98.37
2017-09-07T01:51:38.495Z,98.26
2017-09-07T01:52:38.500Z,97.99
2017-09-07T01:53:38.590Z,97.50
2017-09-07T01:54:38.505Z,97.18
2017-09-07T01:55:38.530Z,97.55
2017-09-07T01:56:38.534Z,97.99
2017-09-07T01:57:38.506Z,98.45
2017-09-07T01:58:38.526Z,98.53
2017-09-07T01:59:38.497Z,98.53
2017-09-07T02:00:38.523Z,99.56
2017-09-07T02:01:38.524Z,99.99
2017-09-07T02:02:38.505Z,99.99
2017-09-07T02:03:38.558Z,99.99
2017-09-07T02:04:38.499Z,99.99
2017-09-07T02:05:38.526Z,99.99
2017-09-07T02:06:38.564Z,99.99
2017-09-07T02:07:38.503Z,99.99
2017-09-07T02:08:38.559Z,99.99
2017-09-07T02:09:38.571Z,99.99
2017-09-07T02:10:38.571Z,99.99
2017-09-07T02:11:38.597Z,99.99
2017-09-07T02:12:38.599Z,99.99
2017-09-07T02:13:38.539Z,99.99
2017-09-07T02:14:38.509Z,99.99
2017-09-07T02:15:38.514Z,99.99
2017-09-07T02:16:38.538Z,99.99
2017-09-07T02:17:38.572Z,99.99
2017-09-07T02:18:38.535Z,99.15
2017-09-07T02:19:38.535Z,98.72
2017-09-07T02:20:38.535Z,98.77
2017-09-07T02:21:38.565Z,97.93
2017-09-07T02:22:42.912Z,97.72
2017-09-07T02:23:38.537Z,97.21
2017-09-07T02:24:38.514Z,96.74
2017-09-07T02:25:38.510Z,97.74
2017-09-07T02:26:38.539Z,97.93
2017-09-07T02:27:38.594Z,98.21
2017-09-07T02:28:38.522Z,98.45
2017-09-07T02:29:38.594Z,99.37
2017-09-07T02:30:38.616Z,98.69
2017-09-07T02:31:38.573Z,97.39
2017-09-07T02:32:38.618Z,97.50
2017-09-07T02:33:38.619Z,97.45
2017-09-07T02:34:38.559Z,97.42
2017-09-07T02:35:38.578Z,98.31
2017-09-07T02:36:38.617Z,99.86
2017-09-07T02:37:38.594Z,99.99
2017-09-07T02:38:38.532Z,99.99
2017-09-07T02:39:38.520Z,99.99
2017-09-07T02:40:38.545Z,99.99
2017-09-07T02:41:38.624Z,99.99
2017-09-07T02:42:38.599Z,99.99
2017-09-07T02:43:38.526Z,99.99
2017-09-07T02:44:38.547Z,99.99
2017-09-07T02:45:38.528Z,99.99
2017-09-07T02:46:38.535Z,99.99
2017-09-07T02:47:38.624Z,99.99
2017-09-07T02:48:38.504Z,99.99
2017-09-07T02:49:38.535Z,99.99
2017-09-07T02:50:38.557Z,99.99
2017-09-07T02:51:38.555Z,99.99
2017-09-07T02:52:38.511Z,99.99
2017-09-07T02:53:38.550Z,99.99
2017-09-07T02:54:38.506Z,99.99
2017-09-07T02:55:38.560Z,99.99
2017-09-07T02:56:38.512Z,99.99
2017-09-07T02:57:38.560Z,99.53
2017-09-07T02:58:38.592Z,99.32
2017-09-07T02:59:38.555Z,98.40
2017-09-07T03:00:38.558Z,98.80
2017-09-07T03:01:38.561Z,98.80
2017-09-07T03:02:38.533Z,98.53
2017-09-07T03:03:38.568Z,97.77
2017-09-07T03:04:38.561Z,98.12
2017-09-07T03:05:38.590Z,98.21
2017-09-07T03:06:38.594Z,96.64
2017-09-07T03:07:38.535Z,96.55
2017-09-07T03:08:38.544Z,97.21
2017-09-07T03:09:38.545Z,98.12
2017-09-07T03:10:38.571Z,96.96
2017-09-07T03:11:38.633Z,96.85
2017-09-07T03:12:38.633Z,96.72
2017-09-07T03:13:38.552Z,97.26
2017-09-07T03:14:38.556Z,97.21
2017-09-07T03:15:38.583Z,97.72
2017-09-07T03:16:38.585Z,98.12
2017-09-07T03:17:38.578Z,98.21
2017-09-07T03:18:38.547Z,98.10
2017-09-07T03:19:38.575Z,98.02
2017-09-07T03:20:38.581Z,97.77
2017-09-07T03:21:38.623Z,97.85
2017-09-07T03:22:38.581Z,97.23
2017-09-07T03:23:38.559Z,97.58
2017-09-07T03:24:38.590Z,97.66
2017-09-07T03:25:38.614Z,98.02
2017-09-07T03:26:38.651Z,98.40
2017-09-07T03:27:38.626Z,98.15
2017-09-07T03:28:38.563Z,98.40
2017-09-07T03:29:38.573Z,97.53
2017-09-07T03:30:38.577Z,98.18
2017-09-07T03:31:38.541Z,97.66
2017-09-07T03:32:38.574Z,97.50
2017-09-07T03:33:38.567Z,97.61
2017-09-07T03:34:38.535Z,97.85
2017-09-07T03:35:38.573Z,97.83
2017-09-07T03:36:38.530Z,97.42
2017-09-07T03:37:38.579Z,98.02
2017-09-07T03:38:38.562Z,96.28
2017-09-07T03:39:38.590Z,96.93
2017-09-07T03:40:38.634Z,96.83
2017-09-07T03:41:38.596Z,97.07
2017-09-07T03:42:38.620Z,97.96
2017-09-07T03:43:38.568Z,98.04
2017-09-07T03:44:38.647Z,97.72
2017-09-07T03:45:38.570Z,97.83
2017-09-07T03:46:38.587Z,97.96
2017-09-07T03:47:38.633Z,97.69
2017-09-07T03:48:38.558Z,98.12
2017-09-07T03:49:38.620Z,98.48
2017-09-07T03:50:38.562Z,97.99
2017-09-07T03:51:38.588Z,98.10
2017-09-07T03:52:38.565Z,98.45
2017-09-07T03:53:38.589Z,97.85
2017-09-07T03:54:38.590Z,97.72
2017-09-07T03:55:38.567Z,98.18
2017-09-07T03:56:38.624Z,98.37
2017-09-07T03:57:38.593Z,97.85
2017-09-07T03:58:38.595Z,97.74
2017-09-07T03:59:38.568Z,98.12
2017-09-07T04:00:38.565Z,97.96
2017-09-07T04:01:38.627Z,97.55
2017-09-07T04:02:38.631Z,97.12
2017-09-07T04:03:38.594Z,96.72
2017-09-07T04:04:38.594Z,97.26
2017-09-07T04:05:38.632Z,97.04
2017-09-07T04:06:38.597Z,97.42
2017-09-07T04:07:38.635Z,97.45
2017-09-07T04:08:38.585Z,97.07
2017-09-07T04:09:38.557Z,97.42
2017-09-07T04:10:38.712Z,97.47
2017-09-07T04:11:38.603Z,96.99
2017-09-07T04:12:38.648Z,97.21
2017-09-07T04:13:38.605Z,96.55
2017-09-07T04:14:38.602Z,96.61
2017-09-07T04:15:38.556Z,97.07
2017-09-07T04:16:38.595Z,97.15
2017-09-07T04:17:38.581Z,96.74
2017-09-07T04:18:38.606Z,96.61
2017-09-07T04:19:38.646Z,96.96
2017-09-07T04:20:38.585Z,97.88
2017-09-07T04:21:38.673Z,98.21
2017-09-07T04:22:38.609Z,98.55
2017-09-07T04:23:38.611Z,98.29
2017-09-07T04:24:38.679Z,97.18
2017-09-07T04:25:38.657Z,96.77
2017-09-07T04:26:38.591Z,97.04
2017-09-07T04:27:38.619Z,96.80
2017-09-07T04:28:38.595Z,97.10
2017-09-07T04:29:38.689Z,97.45
2017-09-07T04:30:38.660Z,97.64
2017-09-07T04:31:38.680Z,98.15
2017-09-07T04:32:38.656Z,98.34
2017-09-07T04:33:38.663Z,98.45
2017-09-07T04:34:38.666Z,98.96
2017-09-07T04:35:38.689Z,98.80
2017-09-07T04:36:38.695Z,97.58
2017-09-07T04:37:38.627Z,97.72
2017-09-07T04:38:38.670Z,97.61
2017-09-07T04:39:38.618Z,97.91
2017-09-07T04:40:38.688Z,97.83
2017-09-07T04:41:38.619Z,97.88
2017-09-07T04:42:38.652Z,97.69
2017-09-07T04:43:38.652Z,97.36
2017-09-07T04:44:38.629Z,97.15
2017-09-07T04:45:38.701Z,97.21
2017-09-07T04:46:38.700Z,97.07
2017-09-07T04:47:38.701Z,97.04
2017-09-07T04:48:38.588Z,97.31
2017-09-07T04:49:38.581Z,96.83
2017-09-07T04:50:38.599Z,97.10
2017-09-07T04:51:38.621Z,96.80
2017-09-07T04:52:38.601Z,96.96
2017-09-07T04:53:38.587Z,96.93
2017-09-07T04:54:38.602Z,96.93
2017-09-07T04:55:38.665Z,97.02
2017-09-07T04:56:38.588Z,96.80
2017-09-07T04:57:38.622Z,96.80
2017-09-07T04:58:38.632Z,97.04
2017-09-07T04:59:38.629Z,97.55
2017-09-07T05:00:38.648Z,98.04
2017-09-07T05:01:38.617Z,98.15
2017-09-07T05:02:38.609Z,98.42
2017-09-07T05:03:38.645Z,98.18
2017-09-07T05:04:38.692Z,97.88
2017-09-07T05:05:38.680Z,97.83
2017-09-07T05:06:38.615Z,98.15
2017-09-07T05:07:38.668Z,97.88
2017-09-07T05:08:38.741Z,98.04
2017-09-07T05:09:38.703Z,97.88
2017-09-07T05:10:38.633Z,97.58
2017-09-07T05:11:38.616Z,97.45
2017-09-07T05:12:38.652Z,97.36
2017-09-07T05:13:38.706Z,97.77
2017-09-07T05:14:38.713Z,98.12
2017-09-07T05:15:38.668Z,98.18
2017-09-07T05:16:38.653Z,98.15
2017-09-07T05:17:38.716Z,97.69
2017-09-07T05:18:38.634Z,97.45
2017-09-07T05:19:38.558Z,97.36
2017-09-07T05:20:38.643Z,97.64
2017-09-07T05:21:38.618Z,97.64
2017-09-07T05:22:38.606Z,97.61
2017-09-07T05:23:38.636Z,98.31
2017-09-07T05:24:38.610Z,98.21
2017-09-07T05:25:38.671Z,98.53
2017-09-07T05:26:38.618Z,98.77
2017-09-07T05:27:38.627Z,98.04
2017-09-07T05:28:38.612Z,97.88
2017-09-07T05:29:38.643Z,97.88
2017-09-07T05:30:38.679Z,98.07
2017-09-07T05:31:38.674Z,98.53
2017-09-07T05:32:38.679Z,98.18
2017-09-07T05:33:38.615Z,98.77
2017-09-07T05:34:38.647Z,99.34
2017-09-07T05:35:38.617Z,99.56
2017-09-07T05:36:38.688Z,99.99
2017-09-07T05:37:38.620Z,99.96
2017-09-07T05:38:38.602Z,99.96
2017-09-07T05:39:38.631Z,99.86
2017-09-07T05:40:38.556Z,98.72
2017-09-07T05:41:38.543Z,97.45
2017-09-07T05:42:38.624Z,97.18
2017-09-07T05:43:38.643Z,97.21
2017-09-07T05:44:38.589Z,97.64
2017-09-07T05:45:38.639Z,97.99
2017-09-07T05:46:38.638Z,98.59
2017-09-07T05:47:38.638Z,98.31
2017-09-07T05:48:38.679Z,97.85
2017-09-07T05:49:38.732Z,97.83
2017-09-07T05:50:38.689Z,98.18
2017-09-07T05:51:38.677Z,98.12
2017-09-07T05:52:38.691Z,97.96
2017-09-07T05:53:38.727Z,96.96
2017-09-07T05:54:38.739Z,97.26
2017-09-07T05:55:38.643Z,97.04
2017-09-07T05:56:38.698Z,97.47
2017-09-07T05:57:38.644Z,97.61
2017-09-07T05:58:38.696Z,97.47
2017-09-07T05:59:38.713Z,97.28
2017-09-07T06:00:38.745Z,97.12
2017-09-07T06:01:38.706Z,96.45
2017-09-07T06:02:38.713Z,95.85
2017-09-07T06:03:38.713Z,96.20
2017-09-07T06:04:38.685Z,97.45
2017-09-07T06:05:38.686Z,97.58
2017-09-07T06:06:38.700Z,96.72
2017-09-07T06:07:38.682Z,96.23
2017-09-07T06:08:38.642Z,95.96
2017-09-07T06:09:38.649Z,96.61
2017-09-07T06:10:38.672Z,97.50
2017-09-07T06:11:38.646Z,97.66
2017-09-07T06:12:38.648Z,97.93
2017-09-07T06:13:38.672Z,97.39
2017-09-07T06:14:38.682Z,97.50
2017-09-07T06:15:38.659Z,96.23
2017-09-07T06:16:38.676Z,95.34
2017-09-07T06:17:38.676Z,95.34
2017-09-07T06:18:38.688Z,95.58
2017-09-07T06:19:38.708Z,95.98
2017-09-07T06:20:38.674Z,96.64
2017-09-07T06:21:38.650Z,96.55
2017-09-07T06:22:38.643Z,96.23
2017-09-07T06:23:38.676Z,96.20
2017-09-07T06:24:38.645Z,96.72
2017-09-07T06:25:38.653Z,96.42
2017-09-07T06:26:38.709Z,97.15
2017-09-07T06:27:38.678Z,96.31
2017-09-07T06:28:38.721Z,95.53
2017-09-07T06:29:38.655Z,96.07
2017-09-07T06:30:38.655Z,94.07
2017-09-07T06:31:38.674Z,93.89
2017-09-07T06:32:38.602Z,94.45
2017-09-07T06:33:38.599Z,94.72
2017-09-07T06:34:38.594Z,94.88
2017-09-07T06:35:38.607Z,93.72
2017-09-07T06:36:38.707Z,92.57
2017-09-07T06:37:38.640Z,93.43
2017-09-07T06:38:38.659Z,94.72
2017-09-07T06:39:38.734Z,93.62
2017-09-07T06:40:38.689Z,94.40
2017-09-07T06:41:38.668Z,94.42
2017-09-07T06:42:38.689Z,93.96
2017-09-07T06:43:38.772Z,93.13
2017-09-07T06:44:38.671Z,92.43
2017-09-07T06:45:38.737Z,92.99
2017-09-07T06:46:38.699Z,92.91
2017-09-07T06:47:38.732Z,92.84
2017-09-07T06:48:38.685Z,92.46
2017-09-07T06:49:38.671Z,93.32
2017-09-07T06:50:38.679Z,93.29
2017-09-07T06:51:38.762Z,93.56
2017-09-07T06:52:38.677Z,93.59
2017-09-07T06:53:38.745Z,93.18
2017-09-07T06:54:38.683Z,94.07
2017-09-07T06:55:38.714Z,94.07
2017-09-07T06:56:38.712Z,92.97
2017-09-07T06:57:38.699Z,92.43
2017-09-07T06:58:38.711Z,92.73
2017-09-07T06:59:38.748Z,91.47
2017-09-07T07:00:38.752Z,91.82
2017-09-07T07:01:38.686Z,92.16
2017-09-07T07:02:38.682Z,92.43
2017-09-07T07:03:38.736Z,91.60
2017-09-07T07:04:38.771Z,91.38
2017-09-07T07:05:38.777Z,90.80
2017-09-07T07:06:38.779Z,91.01
2017-09-07T07:07:38.720Z,91.38
2017-09-07T07:08:38.770Z,92.49
2017-09-07T07:09:38.741Z,92.08
2017-09-07T07:10:38.706Z,92.16
2017-09-07T07:11:38.741Z,92.03
2017-09-07T07:12:38.681Z,91.09
2017-09-07T07:13:38.680Z,89.59
2017-09-07T07:14:38.747Z,89.51
2017-09-07T07:15:38.710Z,90.09
2017-09-07T07:16:38.682Z,89.37
2017-09-07T07:17:38.682Z,89.86
2017-09-07T07:18:38.710Z,89.64
2017-09-07T07:19:38.726Z,90.69
2017-09-07T07:20:38.694Z,90.47
2017-09-07T07:21:38.766Z,90.39
2017-09-07T07:22:38.715Z,89.83
2017-09-07T07:23:38.715Z,88.95
2017-09-07T07:24:38.764Z,88.84
2017-09-07T07:25:38.712Z,87.74
2017-09-07T07:26:38.721Z,88.65
2017-09-07T07:27:38.752Z,89.91
2017-09-07T07:28:38.787Z,88.15
2017-09-07T07:29:38.764Z,88.50
2017-09-07T07:30:38.736Z,89.62
2017-09-07T07:31:38.758Z,89.35
2017-09-07T07:32:38.704Z,88.17
2017-09-07T07:33:38.727Z,88.68
2017-09-07T07:34:38.768Z,88.97
2017-09-07T07:35:38.734Z,88.89
2017-09-07T07:36:38.738Z,89.72
2017-09-07T07:37:38.835Z,88.46
2017-09-07T07:38:38.800Z,87.93
2017-09-07T07:39:38.763Z,89.29
2017-09-07T07:40:38.728Z,89.27
2017-09-07T07:41:38.758Z,89.86
2017-09-07T07:42:38.695Z,89.37
2017-09-07T07:43:38.726Z,87.53
2017-09-07T07:44:38.761Z,88.76
2017-09-07T07:45:38.727Z,89.70
2017-09-07T07:46:38.763Z,88.87
2017-09-07T07:47:38.760Z,88.23
2017-09-07T07:48:38.761Z,88.25
2017-09-07T07:49:38.768Z,86.81
2017-09-07T07:50:38.715Z,87.48
2017-09-07T07:51:38.734Z,86.12
2017-09-07T07:52:38.711Z,86.60
2017-09-07T07:53:38.803Z,85.24
2017-09-07T07:54:38.773Z,86.04
2017-09-07T07:55:38.752Z,85.11
2017-09-07T07:56:38.717Z,85.61
2017-09-07T07:57:38.742Z,83.40
2017-09-07T07:58:38.776Z,84.84
2017-09-07T07:59:38.710Z,84.60
2017-09-07T08:00:38.710Z,84.60
2017-09-07T08:01:38.674Z,84.71
2017-09-07T08:02:38.710Z,85.27
2017-09-07T08:03:38.676Z,85.69
2017-09-07T08:04:38.710Z,84.02
2017-09-07T08:05:38.652Z,85.27
2017-09-07T08:06:38.664Z,83.67
2017-09-07T08:07:38.681Z,83.86
2017-09-07T08:08:38.725Z,84.05
2017-09-07T08:09:38.777Z,84.20
2017-09-07T08:10:38.720Z,84.39
2017-09-07T08:11:38.745Z,84.09
2017-09-07T08:12:38.743Z,84.28
2017-09-07T08:13:38.720Z,82.59
2017-09-07T08:14:38.724Z,81.82
2017-09-07T08:15:38.752Z,82.16
2017-09-07T08:16:38.738Z,83.65
2017-09-07T08:17:38.764Z,83.59
2017-09-07T08:18:38.757Z,81.76
2017-09-07T08:19:38.729Z,83.28
2017-09-07T08:20:38.821Z,83.59
2017-09-07T08:21:38.798Z,84.52
2017-09-07T08:22:38.729Z,81.13
2017-09-07T08:23:38.766Z,81.16
2017-09-07T08:24:38.727Z,80.21
2017-09-07T08:25:38.733Z,81.10
2017-09-07T08:26:38.788Z,80.92
2017-09-07T08:27:38.758Z,81.95
2017-09-07T08:28:38.735Z,79.55
2017-09-07T08:29:38.804Z,81.32
2017-09-07T08:30:38.800Z,80.31
2017-09-07T08:31:38.767Z,80.94
2017-09-07T08:32:38.756Z,79.75
2017-09-07T08:33:38.826Z,78.75
2017-09-07T08:34:38.824Z,78.67
2017-09-07T08:35:38.733Z,78.33
2017-09-07T08:36:38.823Z,80.79
2017-09-07T08:37:38.736Z,79.02
2017-09-07T08:38:38.773Z,79.81
2017-09-07T08:39:38.740Z,80.39
2017-09-07T08:40:38.770Z,80.15
2017-09-07T08:41:38.743Z,78.31
2017-09-07T08:42:38.776Z,76.91
2017-09-07T08:43:38.742Z,77.04
2017-09-07T08:44:38.738Z,76.83
2017-09-07T08:45:38.736Z,76.44
2017-09-07T08:46:38.772Z,76.12
2017-09-07T08:47:38.778Z,76.99
2017-09-07T08:48:38.835Z,77.78
2017-09-07T08:49:38.776Z,75.49
2017-09-07T08:50:38.760Z,75.73
2017-09-07T08:51:38.836Z,77.78
2017-09-07T08:52:38.798Z,77.44
2017-09-07T08:53:38.816Z,77.81
2017-09-07T08:54:38.839Z,78.62
2017-09-07T08:55:38.841Z,77.70
2017-09-07T08:56:38.786Z,78.36
2017-09-07T08:57:38.820Z,79.33
2017-09-07T08:58:38.800Z,78.05
2017-09-07T08:59:38.798Z,79.49
2017-09-07T09:00:38.802Z,79.07
2017-09-07T09:01:38.804Z,79.55
2017-09-07T09:02:38.806Z,76.62
2017-09-07T09:03:38.912Z,77.33
2017-09-07T09:04:38.740Z,79.39
2017-09-07T09:05:38.783Z,77.47
2017-09-07T09:06:38.772Z,76.52
2017-09-07T09:07:38.744Z,77.57
2017-09-07T09:08:38.743Z,77.81
2017-09-07T09:09:38.755Z,78.59
2017-09-07T09:10:38.698Z,77.04
2017-09-07T09:11:38.755Z,77.02
2017-09-07T09:12:38.726Z,76.26
2017-09-07T09:13:38.669Z,75.78
2017-09-07T09:14:38.668Z,75.07
2017-09-07T09:15:38.763Z,77.33
2017-09-07T09:16:38.747Z,79.25
2017-09-07T09:17:38.670Z,76.78
2017-09-07T09:18:38.719Z,78.01
2017-09-07T09:19:38.696Z,76.20
2017-09-07T09:20:38.771Z,76.78
2017-09-07T09:21:38.805Z,75.29
2017-09-07T09:22:38.725Z,75.52
2017-09-07T09:23:38.754Z,76.54
2017-09-07T09:24:38.701Z,74.55
2017-09-07T09:25:38.765Z,73.79
2017-09-07T09:26:38.776Z,73.58
2017-09-07T09:27:38.771Z,75.84
2017-09-07T09:28:38.769Z,75.39
2017-09-07T09:29:38.796Z,74.81
2017-09-07T09:30:38.766Z,75.02
2017-09-07T09:31:38.837Z,73.82
2017-09-07T09:32:38.797Z,73.97
2017-09-07T09:33:38.771Z,73.48
2017-09-07T09:34:38.771Z,75.18
2017-09-07T09:35:38.770Z,73.45
2017-09-07T09:36:38.795Z,75.10
2017-09-07T09:37:38.774Z,73.40
2017-09-07T09:38:38.864Z,74.18
2017-09-07T09:39:38.812Z,74.66
2017-09-07T09:40:38.872Z,74.84
2017-09-07T09:41:38.808Z,74.16
2017-09-07T09:42:38.847Z,73.93
2017-09-07T09:43:38.813Z,73.95
2017-09-07T09:44:38.773Z,74.84
2017-09-07T09:45:38.838Z,74.94
2017-09-07T09:46:38.816Z,74.66
2017-09-07T09:47:38.783Z,73.53
2017-09-07T09:48:38.814Z,72.30
2017-09-07T09:49:38.774Z,71.15
2017-09-07T09:50:38.838Z,73.40
2017-09-07T09:51:38.800Z,71.10
2017-09-07T09:52:38.847Z,72.56
2017-09-07T09:53:38.843Z,71.18
2017-09-07T09:54:38.925Z,69.98
2017-09-07T09:55:38.778Z,69.07
2017-09-07T09:56:38.752Z,68.22
2017-09-07T09:57:38.737Z,69.44
2017-09-07T09:58:38.799Z,69.72
2017-09-07T09:59:38.820Z,68.06
2017-09-07T10:00:38.848Z,66.27
2017-09-07T10:01:38.806Z,65.58
2017-09-07T10:02:38.813Z,66.25
2017-09-07T10:03:38.875Z,69.26
2017-09-07T10:04:38.857Z,70.32
2017-09-07T10:05:38.881Z,69.82
2017-09-07T10:06:38.789Z,70.82
2017-09-07T10:07:38.812Z,70.40
2017-09-07T10:08:38.790Z,67.49
2017-09-07T10:09:38.884Z,68.47
2017-09-07T10:10:38.794Z,67.91
2017-09-07T10:11:38.831Z,68.22
2017-09-07T10:12:38.866Z,69.41
2017-09-07T10:13:38.828Z,68.32
2017-09-07T10:14:38.868Z,68.91
2017-09-07T10:15:38.860Z,69.70
2017-09-07T10:16:38.818Z,71.31
2017-09-07T10:17:38.858Z,70.58
2017-09-07T10:18:38.853Z,70.37
2017-09-07T10:19:38.821Z,70.21
2017-09-07T10:20:38.786Z,70.32
2017-09-07T10:21:38.791Z,70.35
2017-09-07T10:22:38.847Z,69.02
2017-09-07T10:23:38.852Z,68.11
2017-09-07T10:24:38.785Z,67.93
2017-09-07T10:25:38.829Z,66.35
2017-09-07T10:26:38.856Z,66.25
2017-09-07T10:27:38.853Z,68.32
2017-09-07T10:28:38.792Z,70.35
2017-09-07T10:29:38.830Z,68.89
2017-09-07T10:30:38.790Z,66.66
2017-09-07T10:31:38.801Z,65.50
2017-09-07T10:32:38.783Z,67.33
2017-09-07T10:33:38.801Z,63.87
2017-09-07T10:34:38.822Z,64.00
2017-09-07T10:35:38.800Z,66.06
2017-09-07T10:36:38.799Z,67.18
2017-09-07T10:37:38.803Z,68.58
2017-09-07T10:38:38.770Z,68.87
2017-09-07T10:39:38.896Z,67.31
2017-09-07T10:40:38.842Z,66.14
2017-09-07T10:41:38.895Z,64.44
2017-09-07T10:42:38.873Z,65.53
2017-09-07T10:43:38.842Z,66.71
2017-09-07T10:44:38.904Z,66.14
2017-09-07T10:45:38.844Z,67.83
2017-09-07T10:46:38.927Z,67.36
2017-09-07T10:47:38.901Z,69.41
2017-09-07T10:48:38.903Z,68.47
2017-09-07T10:49:38.838Z,70.68
2017-09-07T10:50:38.835Z,67.96
2017-09-07T10:51:38.878Z,67.05
2017-09-07T10:52:38.847Z,67.80
2017-09-07T10:53:38.833Z,67.49
2017-09-07T10:54:38.856Z,65.94
2017-09-07T10:55:38.821Z,66.66
2017-09-07T10:56:38.841Z,65.81
2017-09-07T10:57:38.822Z,65.26
2017-09-07T10:58:38.902Z,65.45
2017-09-07T10:59:38.989Z,64.21
2017-09-07T11:00:38.821Z,61.99
2017-09-07T11:01:38.817Z,59.92
2017-09-07T11:02:38.830Z,62.77
2017-09-07T11:03:38.839Z,61.48
2017-09-07T11:04:38.792Z,63.28
2017-09-07T11:05:38.848Z,63.26
2017-09-07T11:06:38.826Z,62.63
2017-09-07T11:07:38.825Z,61.30
2017-09-07T11:08:38.779Z,61.25
2017-09-07T11:09:38.896Z,61.04
2017-09-07T11:10:38.854Z,61.71
2017-09-07T11:11:38.900Z,59.30
2017-09-07T11:12:38.867Z,57.41
2017-09-07T11:13:38.847Z,57.92
2017-09-07T11:14:38.882Z,58.96
2017-09-07T11:15:38.918Z,59.04
2017-09-07T11:16:38.892Z,56.87
2017-09-07T11:17:38.834Z,60.61
2017-09-07T11:18:38.905Z,55.70
2017-09-07T11:19:38.851Z,60.71
2017-09-07T11:20:38.832Z,57.38
2017-09-07T11:21:38.867Z,55.85
2017-09-07T11:22:38.857Z,56.44
2017-09-07T11:23:38.842Z,55.78
2017-09-07T11:24:38.858Z,56.33
2017-09-07T11:25:38.900Z,56.39
2017-09-07T11:26:38.861Z,58.46
2017-09-07T11:27:38.969Z,57.89
2017-09-07T11:28:38.931Z,57.41
2017-09-07T11:29:38.928Z,56.54
2017-09-07T11:30:38.924Z,55.09
2017-09-07T11:31:38.840Z,58.81
2017-09-07T11:32:38.898Z,58.84
2017-09-07T11:33:38.879Z,57.99
2017-09-07T11:34:38.841Z,58.48
2017-09-07T11:35:38.903Z,57.84
2017-09-07T11:36:38.932Z,54.81
2017-09-07T11:37:38.935Z,57.08
2017-09-07T11:38:38.913Z,55.80
2017-09-07T11:39:38.914Z,56.13
2017-09-07T11:40:38.865Z,56.26
2017-09-07T11:41:38.838Z,58.12
2017-09-07T11:42:38.897Z,56.08
2017-09-07T11:43:38.835Z,55.78
2017-09-07T11:44:38.833Z,55.19
2017-09-07T11:45:38.867Z,56.13
2017-09-07T11:46:38.905Z,57.64
2017-09-07T11:47:38.842Z,57.15
2017-09-07T11:48:38.839Z,57.74
2017-09-07T11:49:38.851Z,57.82
2017-09-07T11:50:38.868Z,54.37
2017-09-07T11:51:38.912Z,56.26
2017-09-07T11:52:38.854Z,56.00
2017-09-07T11:53:38.885Z,57.02
2017-09-07T11:54:38.889Z,56.52
2017-09-07T11:55:38.871Z,57.66
2017-09-07T11:56:38.948Z,57.46
2017-09-07T11:57:38.908Z,57.79
2017-09-07T11:58:38.863Z,59.40
2017-09-07T11:59:38.856Z,58.35
2017-09-07T12:00:38.853Z,54.71
2017-09-07T12:01:38.833Z,57.87
2017-09-07T12:02:38.870Z,57.10
2017-09-07T12:03:38.832Z,58.04
2017-09-07T12:04:38.879Z,58.51
2017-09-07T12:05:38.920Z,64.95
2017-09-07T12:06:38.857Z,57.33
2017-09-07T12:07:38.926Z,56.82
2017-09-07T12:08:38.859Z,59.84
2017-09-07T12:09:38.857Z,58.61
2017-09-07T12:10:38.927Z,58.53
2017-09-07T12:11:38.880Z,58.71
2017-09-07T12:12:38.883Z,59.04
2017-09-07T12:13:38.883Z,59.35
2017-09-07T12:14:38.891Z,61.48
2017-09-07T12:15:38.814Z,60.55
2017-09-07T12:16:38.926Z,61.50
2017-09-07T12:17:38.871Z,60.73
2017-09-07T12:18:38.868Z,61.69
2017-09-07T12:19:38.890Z,59.71
2017-09-07T12:20:38.881Z,60.09
2017-09-07T12:21:38.805Z,59.53
2017-09-07T12:22:38.863Z,59.65
2017-09-07T12:23:38.833Z,60.86
2017-09-07T12:24:38.863Z,59.94
2017-09-07T12:25:38.854Z,59.92
2017-09-07T12:26:38.886Z,60.55
2017-09-07T12:27:38.881Z,61.22
2017-09-07T12:28:38.896Z,61.78
2017-09-07T12:29:38.865Z,61.74
2017-09-07T12:30:38.931Z,62.40
2017-09-07T12:31:38.917Z,62.66
2017-09-07T12:32:38.963Z,63.49
2017-09-07T12:33:38.938Z,62.99
2017-09-07T12:34:38.965Z,63.82
2017-09-07T12:35:38.939Z,64.62
2017-09-07T12:36:38.908Z,64.29
2017-09-07T12:37:38.885Z,63.92
2017-09-07T12:38:38.950Z,62.63
2017-09-07T12:39:38.919Z,63.56
2017-09-07T12:40:38.946Z,65.58
2017-09-07T12:41:38.917Z,65.24
2017-09-07T12:42:38.947Z,65.14
2017-09-07T12:43:38.920Z,64.21
2017-09-07T12:44:38.956Z,64.78
2017-09-07T12:45:38.948Z,64.10
2017-09-07T12:46:38.926Z,64.67
2017-09-07T12:47:38.972Z,64.62
2017-09-07T12:48:38.922Z,64.80
2017-09-07T12:49:38.925Z,65.53
2017-09-07T12:50:38.886Z,63.95
2017-09-07T12:51:38.958Z,64.34
2017-09-07T12:52:38.914Z,63.07
2017-09-07T12:53:38.910Z,62.99